This is the latest recevied weather packets stored in our database for station/object VA7NEZ. If no packets are shown the sender has not sent any weather packets the latest 10 day(s).
| Time | Temp. | Humidity | Pressure | Rain* | Wind** | Luminosity | Snow |
|---|---|---|---|---|---|---|---|
| 1777444452 | 0° C | 100% | 1021.3 hPa | 0 mm | - | - | - |
| 1777443876 | 0° C | 100% | 1021.3 hPa | 0 mm | - | - | - |
| 1777443323 | 10.56° C | 62% | 1021.3 hPa | 0 mm | - | - | - |
| 1777442776 | 11.11° C | 61% | 1021.1 hPa | 0 mm | - | - | - |
| 1777442257 | 11.11° C | 60% | 1020.9 hPa | 0 mm | - | - | - |
| 1777441737 | 11.67° C | 60% | 1021.1 hPa | 0 mm | - | - | - |
| 1777441226 | 11.67° C | 61% | 1021.1 hPa | 0 mm | - | - | - |
| 1777440681 | 11.67° C | 60% | 1021.1 hPa | 0 mm | - | - | - |
| 1777439616 | 0° C | 100% | 1020.9 hPa | 0 mm | - | - | - |
| 1777439122 | 0° C | 100% | 1020.8 hPa | 0 mm | - | - | - |
| 1777438529 | 12.22° C | 61% | 1020.6 hPa | 0 mm | - | - | - |
| 1777437981 | 0° C | 100% | 1020.5 hPa | 0 mm | - | - | - |
| 1777437498 | 12.22° C | 63% | 1020.6 hPa | 0 mm | - | - | - |
| 1777437015 | 12.22° C | 62% | 1020.5 hPa | 0 mm | - | - | - |
| 1777434307 | 0° C | 100% | 1019.9 hPa | 0 mm | - | - | - |
| 1777433226 | 0° C | 100% | 1019.7 hPa | 0 mm | - | - | - |
| 1777429891 | 13.33° C | 66% | 1019 hPa | 0 mm | - | - | - |
| 1777427621 | 0° C | 100% | 1018.7 hPa | 0 mm | - | - | - |
| 1777424309 | 19.44° C | 38% | 1018.1 hPa | 0 mm | - | - | - |
| 1777420422 | 0° C | 100% | 1017.4 hPa | 0 mm | - | - | - |
| 1777414586 | 21.11° C | 29% | 1017.3 hPa | 0 mm | - | - | - |
| 1777412956 | 21.11° C | 27% | 1017.4 hPa | 0 mm | - | - | - |
| 1777411806 | 0° C | 100% | 1017.4 hPa | 0 mm | - | - | - |
| 1777408576 | 20.56° C | 30% | 1017.1 hPa | 0 mm | - | - | - |
| 1777408026 | 20° C | 33% | 1017.1 hPa | 0 mm | - | - | - |
* Rain latest hour (hover to see other rain measurements)
** Current wind speed in m/s (hover to see current wind gust speed)